<?xml version='1.0' encoding='UTF-8'?>
<gpx xmlns="http://www.topografix.com/GPX/1/1" creator="www.balnam.be" version="1.1" xmlns:xsi="http://www.w3.org/2001/XMLSchema-instance" xsi:schemaLocation="http://www.topografix.com/GPX/1/1 http://www.topografix.com/GPX/1/1/gpx.xsd">
<trk>
<name>njmms5</name>
<cmt>r</cmt>
<desc>Moustier-sur-Sambre Chemin n°5 Rue du Bois / Rue des Blés</desc>
<link href="https://chemins.be/moustiersursambre/chemin/5"/><trkseg>
<trkpt lat="50.448112" lon="4.686940"><time>2026-05-07T23:24:23Z</time></trkpt>
<trkpt lat="50.451081" lon="4.686172"><time>2026-05-07T23:34:23Z</time></trkpt>
<trkpt lat="50.452107" lon="4.685840"><time>2026-05-07T23:44:23Z</time></trkpt>
<trkpt lat="50.454573" lon="4.684843"><time>2026-05-07T23:54:23Z</time></trkpt>
<trkpt lat="50.456867" lon="4.684295"><time>2026-05-08T00:04:23Z</time></trkpt>
<trkpt lat="50.460078" lon="4.683866"><time>2026-05-08T00:14:23Z</time></trkpt>
<trkpt lat="50.460994" lon="4.684168"><time>2026-05-08T00:24:23Z</time></trkpt>
<trkpt lat="50.461605" lon="4.684369"><time>2026-05-08T00:34:23Z</time></trkpt>
<trkpt lat="50.463082" lon="4.683182"><time>2026-05-08T00:44:23Z</time></trkpt>
<trkpt lat="50.463991" lon="4.682836"><time>2026-05-08T00:54:23Z</time></trkpt>
<trkpt lat="50.464433" lon="4.682219"><time>2026-05-08T01:04:23Z</time></trkpt>
<trkpt lat="50.464381" lon="4.681500"><time>2026-05-08T01:14:23Z</time></trkpt>
<trkpt lat="50.464984" lon="4.681321"><time>2026-05-08T01:24:23Z</time></trkpt>
<trkpt lat="50.465651" lon="4.680593"><time>2026-05-08T01:34:23Z</time></trkpt>
</trkseg></trk>
<trk>
<name>njmms5</name>
<cmt>v</cmt>
<desc>Moustier-sur-Sambre Chemin n°5 Rue du Bois / Rue des Blés</desc>
<link href="https://chemins.be/moustiersursambre/chemin/5"/><trkseg>
<trkpt lat="50.465651" lon="4.680593"><time>2026-05-08T01:34:23Z</time></trkpt>
<trkpt lat="50.466038" lon="4.680652"><time>2026-05-08T01:44:23Z</time></trkpt>
<trkpt lat="50.467116" lon="4.680772"><time>2026-05-08T01:54:23Z</time></trkpt>
<trkpt lat="50.468097" lon="4.680567"><time>2026-05-08T02:04:23Z</time></trkpt>
</trkseg></trk>
<trk>
<name>njmms5</name>
<cmt>d</cmt>
<desc>Moustier-sur-Sambre Chemin n°5 Rue du Bois / Rue des Blés</desc>
<link href="https://chemins.be/moustiersursambre/chemin/5"/><trkseg>
<trkpt lat="50.468097" lon="4.680567"><time>2026-05-08T02:04:23Z</time></trkpt>
<trkpt lat="50.468492" lon="4.680753"><time>2026-05-08T02:14:23Z</time></trkpt>
<trkpt lat="50.468779" lon="4.681121"><time>2026-05-08T02:24:23Z</time></trkpt>
<trkpt lat="50.469146" lon="4.681588"><time>2026-05-08T02:34:23Z</time></trkpt>
<trkpt lat="50.469898" lon="4.682917"><time>2026-05-08T02:44:23Z</time></trkpt>
<trkpt lat="50.470066" lon="4.683608"><time>2026-05-08T02:54:23Z</time></trkpt>
</trkseg></trk>
<trk>
<name>njmms5</name>
<cmt>v</cmt>
<desc>Moustier-sur-Sambre Chemin n°5 Rue du Bois / Rue des Blés</desc>
<link href="https://chemins.be/moustiersursambre/chemin/5"/><trkseg>
<trkpt lat="50.470066" lon="4.683608"><time>2026-05-08T02:54:23Z</time></trkpt>
<trkpt lat="50.470951" lon="4.685784"><time>2026-05-08T03:04:23Z</time></trkpt>
<trkpt lat="50.471998" lon="4.687594"><time>2026-05-08T03:14:23Z</time></trkpt>
</trkseg>
</trk>
</gpx>